Aérodrome :
LOGIN :

S'inscrire | Disclaimer

   EN    FR    IT 

 










Légende :    VFR   VFR Marginal   IFR   IFR Intensif   IFR Très Intensif
Visi : 
Plafond : 
>= 8 km
>= 3000ft
5 à 8 km
1000 à 3000 ft
1500m à 5 km
500 à 1000 ft
800 à 1500m
200 à 500 ft
< 800m
< 200 ft
Symboles :   Orages  Brouillard  Fortes neiges  Fortes précipitations  Vent > 20 kt
SIGMETs :   Divers  Orages  Givrage  Turbulence  Onde Orograph.  Cendres Volcan.






- Altitude de l'aérodrome : 38 ft
- Code IATA : ADX


EGQL - RAF Leuchars

DERNIER METAR :
  • 081850Z 07014KT 9999 -SHRA SCT007 BKN019 07/06 Q1024 GRN

METARs EXPIRÉS :
  • 081750Z 27012KT 9999 SCT045 BKN070 14/08 Q1022 BLU
  • 081650Z 28015KT 9999 FEW045 BKN070 BKN110 15/07 Q1021 RMK BLU

TAF TAF EGQL
Valide du 08 à 18h jusqu'au 09 à 03h UTC


081617Z 0818/0903 28015KT 9999 SCT040
BECMG 0818/0821 07008KT
TEMPO 0818/0903 SCT020
PROB40
TEMPO 0819/0824 2500 DZ SCT004 BKN010



MET'MAP, la Météo Aéronautique d'un coup d'oeil ! - Copyright ORBIFLY Décembre 2007 - Disclaimer

ORBIFLY MET'MAP TEAM :

Programmation & Développement : Alexandra Zaïnal
Sur une idée originale de : Baudouin d'Aumeries
Assistance à la programmation : Marc-Olivier Méhu
Soutien technique & logistique : Manuel Goepfert

Contact : metmap@orbifly.com




SOURCES & CREDITS :

   NOAA